createdAt,value
2022-08-08T00:01:06.670Z,20.13
2022-08-08T00:03:36.224Z,20.42
2022-08-08T00:06:04.627Z,20.39
2022-08-08T00:08:32.044Z,20.43
2022-08-08T00:10:59.185Z,20.39
2022-08-08T00:14:15.128Z,20.31
2022-08-08T00:16:12.093Z,20.19
2022-08-08T00:18:41.731Z,20.15
2022-08-08T00:21:09.147Z,20.20
2022-08-08T00:23:47.830Z,20.27
2022-08-08T00:26:21.838Z,20.33
2022-08-08T00:28:55.694Z,20.21
2022-08-08T00:32:32.545Z,20.07
2022-08-08T00:34:17.274Z,19.94
2022-08-08T00:36:45.464Z,20.23
2022-08-08T00:41:06.310Z,20.48
2022-08-08T00:42:09.191Z,20.57
2022-08-08T00:44:46.170Z,20.47
2022-08-08T00:47:19.384Z,20.60
2022-08-08T00:49:50.347Z,20.65
2022-08-08T00:52:40.294Z,20.39
2022-08-08T00:55:09.811Z,20.24
2022-08-08T00:57:38.084Z,20.17
2022-08-08T01:00:05.043Z,19.99
2022-08-08T01:03:58.498Z,19.92
2022-08-08T01:05:42.333Z,19.84
2022-08-08T01:08:06.809Z,20.09
2022-08-08T01:10:34.404Z,20.38
2022-08-08T01:13:01.686Z,20.32
2022-08-08T01:15:37.119Z,20.01
2022-08-08T01:18:16.161Z,19.82
2022-08-08T01:20:51.644Z,19.70
2022-08-08T01:24:06.492Z,19.80
2022-08-08T01:26:05.998Z,19.88
2022-08-08T01:28:39.263Z,19.90
2022-08-08T01:31:23.682Z,19.75
2022-08-08T01:34:00.201Z,19.70
2022-08-08T01:36:27.803Z,19.90
2022-08-08T01:38:55.507Z,19.88
2022-08-08T01:41:21.939Z,19.78
2022-08-08T01:43:50.688Z,19.73
2022-08-08T01:46:17.427Z,19.96
2022-08-08T01:48:46.303Z,20.18
2022-08-08T01:51:30.574Z,20.21
2022-08-08T01:55:17.136Z,20.23
2022-08-08T01:56:49.218Z,20.21
2022-08-08T01:59:17.186Z,19.94
2022-08-08T02:01:59.682Z,19.50
2022-08-08T02:04:29.871Z,19.44
2022-08-08T02:06:56.313Z,19.57
2022-08-08T02:10:01.974Z,19.62
2022-08-08T02:12:09.303Z,19.68
2022-08-08T02:14:55.595Z,19.61
2022-08-08T02:17:26.720Z,19.41
2022-08-08T02:20:09.683Z,19.59
2022-08-08T02:22:52.582Z,19.71
2022-08-08T02:25:21.228Z,19.79
2022-08-08T02:27:50.017Z,19.97
2022-08-08T02:30:21.553Z,20.16
2022-08-08T02:32:51.178Z,20.19
2022-08-08T02:35:18.734Z,20.15
2022-08-08T02:37:52.666Z,20.09
2022-08-08T02:40:23.513Z,20.07
2022-08-08T02:43:00.642Z,19.94
2022-08-08T02:45:54.135Z,19.88
2022-08-08T02:48:26.138Z,19.64
2022-08-08T02:50:56.288Z,19.37
2022-08-08T02:53:24.058Z,19.25
2022-08-08T02:55:59.893Z,19.17
2022-08-08T02:58:28.517Z,19.22
2022-08-08T03:00:57.831Z,19.30
2022-08-08T03:03:46.009Z,19.58
2022-08-08T03:06:12.506Z,19.63
2022-08-08T03:08:51.898Z,19.20
2022-08-08T03:11:47.433Z,19.16
2022-08-08T03:16:03.869Z,19.15
2022-08-08T03:16:53.397Z,19.07
2022-08-08T03:19:23.132Z,19.05
2022-08-08T03:21:58.355Z,18.96
2022-08-08T03:24:28.812Z,18.94
2022-08-08T03:26:55.572Z,18.92
2022-08-08T03:29:51.243Z,18.86
2022-08-08T03:32:08.846Z,18.75
2022-08-08T03:34:35.430Z,18.70
2022-08-08T03:37:20.032Z,18.80
2022-08-08T03:40:00.559Z,18.91
2022-08-08T03:42:31.445Z,19.04
2022-08-08T03:44:58.801Z,19.09
2022-08-08T03:47:25.274Z,19.19
2022-08-08T03:50:07.891Z,19.35
2022-08-08T03:52:45.326Z,19.39
2022-08-08T03:55:54.943Z,19.29
2022-08-08T03:58:09.493Z,19.08
2022-08-08T04:00:56.956Z,19.02
2022-08-08T04:03:57.949Z,19.01
2022-08-08T04:06:18.554Z,18.97
2022-08-08T04:08:46.784Z,18.93
2022-08-08T04:11:17.407Z,18.99
2022-08-08T04:14:04.243Z,18.95
2022-08-08T04:16:40.637Z,19.00
2022-08-08T04:19:24.038Z,19.11
2022-08-08T04:21:51.978Z,19.30
2022-08-08T04:24:29.327Z,19.13
2022-08-08T04:26:58.856Z,19.21
2022-08-08T04:29:25.438Z,19.21
2022-08-08T04:31:59.473Z,19.21
2022-08-08T04:34:26.861Z,19.19
2022-08-08T04:36:58.584Z,19.41
2022-08-08T04:40:03.506Z,19.45
2022-08-08T04:42:11.464Z,19.45
2022-08-08T04:44:42.392Z,19.47
2022-08-08T04:47:14.043Z,19.62
2022-08-08T04:50:01.155Z,19.64
2022-08-08T04:52:33.906Z,19.77
2022-08-08T04:55:02.509Z,19.99
2022-08-08T04:57:31.864Z,20.00
2022-08-08T05:00:00.896Z,20.10
2022-08-08T05:02:31.025Z,20.19
2022-08-08T05:04:59.401Z,20.14
2022-08-08T05:07:26.295Z,20.10
2022-08-08T05:09:54.304Z,19.92
2022-08-08T05:12:34.846Z,19.85
2022-08-08T05:15:06.331Z,19.92
2022-08-08T05:17:53.924Z,19.85
2022-08-08T05:20:21.070Z,19.82
2022-08-08T05:22:51.001Z,19.90
2022-08-08T05:25:21.286Z,19.96
2022-08-08T05:27:51.596Z,19.92
2022-08-08T05:30:28.038Z,19.85
2022-08-08T05:32:55.208Z,19.87
2022-08-08T05:35:24.776Z,20.00
2022-08-08T05:37:54.495Z,20.05
2022-08-08T05:40:27.874Z,20.12
2022-08-08T05:42:56.226Z,20.16
2022-08-08T05:45:41.554Z,20.21
2022-08-08T05:48:11.795Z,20.25
2022-08-08T05:50:41.284Z,20.28
2022-08-08T05:53:54.722Z,20.40
2022-08-08T05:56:07.989Z,20.41
2022-08-08T05:58:56.709Z,20.42
2022-08-08T06:01:55.694Z,20.37
2022-08-08T06:04:23.754Z,20.33
2022-08-08T06:06:53.305Z,20.28
2022-08-08T06:09:41.626Z,20.39
2022-08-08T06:12:07.014Z,20.50
2022-08-08T06:14:33.476Z,20.53
2022-08-08T06:17:01.713Z,20.61
2022-08-08T06:19:35.213Z,20.59
2022-08-08T06:22:32.071Z,20.62
2022-08-08T06:24:51.110Z,20.60
2022-08-08T06:27:20.643Z,20.54
2022-08-08T06:29:56.937Z,20.60
2022-08-08T06:32:28.488Z,20.70
2022-08-08T06:35:11.874Z,20.76
2022-08-08T06:37:43.436Z,20.62
2022-08-08T06:40:15.950Z,20.55
2022-08-08T06:42:43.957Z,20.56
2022-08-08T06:45:10.372Z,20.58
2022-08-08T06:47:52.705Z,20.72
2022-08-08T06:50:31.726Z,20.64
2022-08-08T06:52:58.890Z,20.74
2022-08-08T06:55:26.281Z,20.94
2022-08-08T06:57:57.535Z,21.00
2022-08-08T07:00:30.087Z,20.96
2022-08-08T07:02:59.070Z,20.88
2022-08-08T07:05:29.895Z,20.92
2022-08-08T07:08:06.487Z,20.97
2022-08-08T07:10:35.196Z,21.02
2022-08-08T07:13:04.340Z,21.03
2022-08-08T07:16:03.645Z,21.00
2022-08-08T07:18:36.017Z,21.04
2022-08-08T07:21:04.990Z,21.07
2022-08-08T07:24:01.405Z,21.17
2022-08-08T07:26:17.893Z,21.24
2022-08-08T07:28:56.549Z,21.27
2022-08-08T07:31:22.956Z,21.30
2022-08-08T07:33:53.333Z,21.33
2022-08-08T07:36:25.510Z,21.34
2022-08-08T07:38:53.385Z,21.36
2022-08-08T07:41:23.681Z,21.37
2022-08-08T07:43:53.573Z,21.40
2022-08-08T07:46:29.167Z,21.43
2022-08-08T07:48:56.997Z,21.49
2022-08-08T07:51:53.049Z,21.48
2022-08-08T07:54:09.992Z,21.51
2022-08-08T07:56:37.152Z,21.56
2022-08-08T07:59:03.749Z,21.60
2022-08-08T08:02:36.578Z,21.63
2022-08-08T08:04:19.559Z,21.67
2022-08-08T08:06:47.232Z,21.74
2022-08-08T08:09:13.614Z,21.78
2022-08-08T08:11:51.172Z,21.76
2022-08-08T08:14:18.414Z,21.79
2022-08-08T08:16:50.487Z,21.84
2022-08-08T08:19:17.316Z,21.84
2022-08-08T08:21:57.885Z,21.83
2022-08-08T08:24:30.814Z,21.79
2022-08-08T08:27:02.831Z,21.81
2022-08-08T08:29:30.070Z,21.81
2022-08-08T08:31:57.720Z,21.74
2022-08-08T08:34:24.947Z,21.74
2022-08-08T08:36:59.041Z,21.78
2022-08-08T08:39:25.434Z,21.79
2022-08-08T08:42:13.364Z,21.82
2022-08-08T08:44:39.885Z,21.91
2022-08-08T08:47:08.845Z,21.91
2022-08-08T08:49:36.767Z,21.87
2022-08-08T08:52:09.245Z,21.98
2022-08-08T08:54:35.655Z,21.98
2022-08-08T08:57:04.986Z,21.95
2022-08-08T08:59:58.834Z,21.95
2022-08-08T09:02:28.467Z,22.02
2022-08-08T09:04:57.659Z,21.95
2022-08-08T09:07:24.030Z,21.84
2022-08-08T09:10:06.985Z,21.79
2022-08-08T09:12:37.506Z,21.84
2022-08-08T09:15:06.200Z,21.89
2022-08-08T09:17:41.987Z,21.92
2022-08-08T09:22:01.321Z,21.89
2022-08-08T09:23:10.589Z,21.89
2022-08-08T09:25:54.333Z,21.92
2022-08-08T09:28:37.138Z,21.92
2022-08-08T09:31:12.276Z,21.93
2022-08-08T09:34:14.957Z,21.93
2022-08-08T09:36:25.751Z,21.94
2022-08-08T09:38:54.158Z,22.00
2022-08-08T09:41:20.726Z,22.13
2022-08-08T09:44:05.480Z,22.30
2022-08-08T09:46:33.501Z,22.40
2022-08-08T09:49:18.019Z,22.51
2022-08-08T09:52:01.741Z,22.55
2022-08-08T09:54:36.589Z,22.52
2022-08-08T09:57:04.385Z,22.63
2022-08-08T10:00:01.929Z,22.70
2022-08-08T10:02:17.055Z,22.71
2022-08-08T10:04:47.881Z,22.75
2022-08-08T10:07:15.775Z,22.83
2022-08-08T10:09:59.929Z,22.87
2022-08-08T10:12:37.448Z,22.88
2022-08-08T10:15:17.678Z,22.93
2022-08-08T10:18:06.145Z,22.99
2022-08-08T10:20:40.605Z,23.01
2022-08-08T10:23:20.931Z,23.01
2022-08-08T10:26:25.853Z,23.03
2022-08-08T10:28:53.919Z,22.89
2022-08-08T10:31:20.880Z,22.75
2022-08-08T10:34:20.153Z,22.68
2022-08-08T10:36:47.408Z,22.64
2022-08-08T10:39:13.964Z,22.63
2022-08-08T10:42:13.377Z,22.61
2022-08-08T10:44:27.323Z,22.60
2022-08-08T10:46:55.645Z,22.56
2022-08-08T10:50:00.451Z,22.54
2022-08-08T10:52:09.484Z,22.53
2022-08-08T10:54:40.646Z,22.53
2022-08-08T10:57:08.867Z,22.54
2022-08-08T10:59:40.005Z,22.53
2022-08-08T11:02:07.528Z,22.51
2022-08-08T11:04:39.356Z,22.54
2022-08-08T11:07:05.915Z,22.51
2022-08-08T11:09:33.339Z,22.51
2022-08-08T11:12:12.501Z,22.51
2022-08-08T11:14:40.383Z,22.50
2022-08-08T11:17:15.019Z,22.47
2022-08-08T11:19:42.221Z,22.54
2022-08-08T11:22:12.990Z,22.57
2022-08-08T11:24:39.330Z,22.54
2022-08-08T11:27:10.468Z,22.51
2022-08-08T11:30:04.189Z,22.52
2022-08-08T11:32:32.840Z,22.50
2022-08-08T11:35:27.939Z,22.50
2022-08-08T11:38:35.565Z,22.51
2022-08-08T11:40:35.560Z,22.53
2022-08-08T11:43:02.402Z,22.66
2022-08-08T11:45:29.898Z,22.78
2022-08-08T11:48:06.288Z,22.91
2022-08-08T11:50:36.241Z,22.96
2022-08-08T11:53:06.357Z,22.86
2022-08-08T11:55:33.052Z,22.93
2022-08-08T11:58:01.627Z,22.99
2022-08-08T12:00:33.342Z,23.10
2022-08-08T12:02:59.725Z,23.19
2022-08-08T12:05:26.108Z,23.24
2022-08-08T12:07:56.034Z,23.36
2022-08-08T12:10:22.992Z,23.46
2022-08-08T12:12:49.338Z,23.53
2022-08-08T12:15:18.312Z,23.63
2022-08-08T12:17:51.225Z,23.64
2022-08-08T12:20:17.770Z,23.60
2022-08-08T12:22:45.730Z,23.52
2022-08-08T12:25:12.279Z,23.53
2022-08-08T12:27:45.325Z,23.65
2022-08-08T12:30:18.390Z,23.69
2022-08-08T12:32:48.221Z,23.70
2022-08-08T12:35:18.218Z,23.60
2022-08-08T12:38:01.293Z,23.58
2022-08-08T12:40:29.051Z,23.47
2022-08-08T12:42:56.454Z,23.53
2022-08-08T12:45:57.853Z,23.46
2022-08-08T12:48:36.633Z,23.50
2022-08-08T12:50:57.462Z,23.53
2022-08-08T12:53:24.863Z,23.49
2022-08-08T12:56:17.507Z,23.56
2022-08-08T12:58:43.148Z,23.57
2022-08-08T13:01:11.023Z,23.54
2022-08-08T13:03:37.593Z,23.59
2022-08-08T13:06:06.678Z,23.34
2022-08-08T13:08:38.066Z,23.30
2022-08-08T13:11:04.426Z,23.25
2022-08-08T13:13:35.487Z,23.16
2022-08-08T13:16:04.177Z,23.08
2022-08-08T13:18:30.530Z,23.05
2022-08-08T13:21:16.352Z,23.04
2022-08-08T13:23:46.994Z,23.02
2022-08-08T13:26:15.224Z,23.02
2022-08-08T13:28:42.510Z,23.00
2022-08-08T13:31:09.184Z,22.99
2022-08-08T13:33:42.027Z,22.97
2022-08-08T13:36:09.501Z,22.94
2022-08-08T13:38:35.870Z,22.93
2022-08-08T13:41:03.415Z,22.90
2022-08-08T13:43:29.765Z,22.88
2022-08-08T13:45:56.702Z,22.87
2022-08-08T13:48:26.487Z,22.88
2022-08-08T13:50:57.832Z,22.86
2022-08-08T13:53:39.195Z,22.84
2022-08-08T13:56:06.153Z,22.83
2022-08-08T13:58:33.031Z,22.82
2022-08-08T14:00:59.664Z,22.92
2022-08-08T14:03:47.095Z,23.03
2022-08-08T14:06:32.015Z,23.10
2022-08-08T14:08:58.736Z,23.18
2022-08-08T14:11:25.068Z,23.24
2022-08-08T14:13:59.214Z,23.24
2022-08-08T14:16:27.402Z,23.37
2022-08-08T14:18:56.896Z,23.41
2022-08-08T14:21:23.231Z,23.42
2022-08-08T14:24:06.363Z,23.46
2022-08-08T14:26:34.512Z,23.46
2022-08-08T14:29:06.003Z,23.45
2022-08-08T14:32:08.973Z,23.54
2022-08-08T14:34:27.787Z,23.56
2022-08-08T14:36:56.084Z,23.58
2022-08-08T14:39:25.066Z,23.67
2022-08-08T14:42:09.132Z,23.70
2022-08-08T14:44:39.389Z,23.73
2022-08-08T14:47:16.705Z,23.47
2022-08-08T14:50:05.875Z,23.37
2022-08-08T14:52:34.207Z,23.28
2022-08-08T14:55:00.838Z,23.29
2022-08-08T14:58:00.648Z,23.29
2022-08-08T15:00:14.530Z,23.18
2022-08-08T15:02:58.701Z,23.17
2022-08-08T15:05:33.941Z,23.15
2022-08-08T15:08:21.623Z,23.12
2022-08-08T15:10:49.139Z,23.06
2022-08-08T15:13:15.871Z,23.06
2022-08-08T15:16:01.182Z,23.03
2022-08-08T15:18:29.841Z,23.02
2022-08-08T15:20:56.361Z,23.01
2022-08-08T15:23:22.774Z,23.00
2022-08-08T15:25:59.308Z,22.95
2022-08-08T15:28:33.925Z,22.96
2022-08-08T15:31:01.045Z,22.96
2022-08-08T15:33:35.511Z,22.97
2022-08-08T15:36:05.171Z,22.93
2022-08-08T15:38:32.434Z,22.94
2022-08-08T15:40:58.772Z,22.90
2022-08-08T15:43:35.603Z,22.83
2022-08-08T15:46:02.994Z,22.82
2022-08-08T15:48:29.372Z,22.79
2022-08-08T15:50:57.388Z,22.84
2022-08-08T15:53:25.141Z,22.86
2022-08-08T15:55:52.463Z,22.85
2022-08-08T15:58:18.812Z,22.86
2022-08-08T16:00:54.615Z,22.84
2022-08-08T16:03:21.030Z,22.84
2022-08-08T16:06:01.154Z,22.82
2022-08-08T16:08:28.665Z,22.82
2022-08-08T16:13:09.455Z,22.79
2022-08-08T16:13:45.287Z,22.77
2022-08-08T16:16:18.144Z,22.77
2022-08-08T16:18:56.661Z,22.79
2022-08-08T16:21:26.873Z,22.79
2022-08-08T16:23:55.375Z,22.79
2022-08-08T16:26:23.025Z,22.78
2022-08-08T16:29:00.014Z,22.77
2022-08-08T16:31:26.739Z,22.77
2022-08-08T16:33:58.212Z,22.77
2022-08-08T16:36:33.703Z,22.77
2022-08-08T16:39:00.531Z,22.76
2022-08-08T16:41:26.939Z,22.76
2022-08-08T16:43:55.832Z,22.75
2022-08-08T16:46:38.475Z,22.75
2022-08-08T16:49:09.318Z,22.75
2022-08-08T16:55:02.517Z,22.74
2022-08-08T16:55:02.586Z,22.74
2022-08-08T16:58:12.218Z,22.75
2022-08-08T16:59:55.778Z,22.76
2022-08-08T17:02:38.501Z,22.76
2022-08-08T17:05:06.181Z,22.76
2022-08-08T17:07:32.535Z,22.77
2022-08-08T17:09:58.900Z,22.78
2022-08-08T17:12:28.549Z,22.78
2022-08-08T17:14:55.191Z,22.78
2022-08-08T17:17:41.358Z,22.78
2022-08-08T17:20:07.903Z,22.78
2022-08-08T17:22:39.375Z,22.78
2022-08-08T17:25:09.045Z,22.78
2022-08-08T17:27:46.328Z,22.80
2022-08-08T17:30:23.609Z,22.79
2022-08-08T17:34:49.473Z,22.79
2022-08-08T17:35:56.112Z,22.81
2022-08-08T17:38:30.990Z,22.79
2022-08-08T17:40:57.500Z,22.78
2022-08-08T17:43:23.858Z,22.81
2022-08-08T17:45:52.260Z,22.81
2022-08-08T17:48:29.241Z,22.81
2022-08-08T17:50:57.576Z,22.82
2022-08-08T17:53:31.244Z,22.83
2022-08-08T17:56:11.012Z,22.83
2022-08-08T17:58:38.884Z,22.88
2022-08-08T18:01:05.290Z,23.05
2022-08-08T18:03:36.499Z,23.14
2022-08-08T18:06:02.905Z,23.20
2022-08-08T18:08:46.508Z,23.28
2022-08-08T18:11:15.021Z,23.32
2022-08-08T18:13:42.512Z,23.41
2022-08-08T18:16:09.905Z,23.44
2022-08-08T18:18:42.796Z,23.51
2022-08-08T18:21:25.129Z,23.57
2022-08-08T18:23:58.133Z,23.54
2022-08-08T18:26:25.656Z,23.54
2022-08-08T18:28:55.571Z,23.50
2022-08-08T18:31:21.965Z,23.56
2022-08-08T18:34:11.906Z,23.69
2022-08-08T18:36:34.677Z,23.60
2022-08-08T18:39:02.499Z,23.64
2022-08-08T18:41:51.913Z,23.64
2022-08-08T18:44:16.111Z,23.68
2022-08-08T18:46:54.395Z,23.61
2022-08-08T18:49:24.288Z,23.60
2022-08-08T18:51:54.597Z,23.58
2022-08-08T18:54:24.808Z,23.47
2022-08-08T18:56:56.205Z,23.39
2022-08-08T18:59:23.183Z,23.42
2022-08-08T19:02:26.090Z,23.39
2022-08-08T19:04:36.017Z,23.31
2022-08-08T19:07:03.006Z,23.29
2022-08-08T19:09:48.287Z,23.27
2022-08-08T19:12:15.753Z,23.21
2022-08-08T19:14:42.915Z,23.18
2022-08-08T19:17:10.710Z,23.31
2022-08-08T19:19:37.405Z,23.27
2022-08-08T19:22:10.665Z,23.21
2022-08-08T19:24:49.086Z,23.28
2022-08-08T19:27:57.226Z,23.24
2022-08-08T19:30:18.001Z,23.33
2022-08-08T19:32:50.656Z,23.32
2022-08-08T19:35:17.045Z,23.42
2022-08-08T19:37:48.593Z,23.40
2022-08-08T19:40:21.942Z,23.46
2022-08-08T19:42:57.627Z,23.40
2022-08-08T19:45:58.538Z,23.47
2022-08-08T19:48:28.186Z,23.59
2022-08-08T19:50:56.816Z,23.58
2022-08-08T19:53:51.928Z,23.42
2022-08-08T19:56:12.164Z,23.39
2022-08-08T19:58:39.328Z,23.53
2022-08-08T20:01:05.882Z,23.47
2022-08-08T20:04:01.936Z,23.62
2022-08-08T20:06:21.291Z,23.71
2022-08-08T20:08:48.900Z,23.62
2022-08-08T20:11:15.396Z,23.61
2022-08-08T20:14:11.908Z,23.60
2022-08-08T20:16:29.525Z,23.52
2022-08-08T20:18:56.161Z,23.57
2022-08-08T20:21:23.043Z,23.58
2022-08-08T20:23:52.314Z,23.57
2022-08-08T20:26:22.791Z,23.62
2022-08-08T20:28:54.130Z,23.61
2022-08-08T20:31:21.979Z,23.62
2022-08-08T20:34:27.957Z,23.61
2022-08-08T20:36:35.026Z,23.29
2022-08-08T20:39:05.090Z,23.29
2022-08-08T20:41:31.531Z,23.48
2022-08-08T20:44:00.277Z,23.37
2022-08-08T20:46:26.685Z,23.52
2022-08-08T20:48:58.402Z,23.43
2022-08-08T20:51:26.194Z,23.45
2022-08-08T20:54:04.877Z,23.57
2022-08-08T20:57:05.891Z,23.39
2022-08-08T20:59:26.531Z,23.22
2022-08-08T21:02:06.726Z,23.11
2022-08-08T21:04:34.423Z,23.01
2022-08-08T21:07:01.119Z,22.98
2022-08-08T21:10:02.242Z,22.91
2022-08-08T21:12:19.017Z,23.04
2022-08-08T21:14:51.274Z,23.18
2022-08-08T21:17:20.425Z,23.19
2022-08-08T21:19:47.980Z,23.02
2022-08-08T21:22:15.485Z,23.06
2022-08-08T21:24:53.229Z,22.91
2022-08-08T21:28:05.038Z,22.71
2022-08-08T21:30:10.824Z,22.69
2022-08-08T21:32:44.412Z,22.76
2022-08-08T21:36:17.739Z,22.55
2022-08-08T21:38:04.142Z,22.45
2022-08-08T21:40:32.150Z,22.63
2022-08-08T21:42:58.604Z,22.66
2022-08-08T21:48:00.374Z,22.57
2022-08-08T21:48:21.821Z,22.44
2022-08-08T21:50:56.602Z,22.53
2022-08-08T21:54:31.089Z,22.44
2022-08-08T21:56:19.112Z,22.35
2022-08-08T21:58:56.853Z,22.24
2022-08-08T22:01:39.070Z,22.30
2022-08-08T22:04:07.800Z,22.40
2022-08-08T22:06:39.499Z,22.37
2022-08-08T22:09:08.539Z,22.42
2022-08-08T22:12:02.420Z,22.37
2022-08-08T22:14:21.555Z,22.35
2022-08-08T22:16:47.929Z,22.32
2022-08-08T22:19:19.889Z,22.42
2022-08-08T22:21:50.550Z,22.49
2022-08-08T22:24:17.270Z,22.51
2022-08-08T22:27:02.287Z,22.53
2022-08-08T22:30:01.400Z,22.49
2022-08-08T22:32:16.030Z,22.44
2022-08-08T22:34:44.716Z,22.43
2022-08-08T22:37:49.078Z,22.48
2022-08-08T22:40:03.630Z,22.43
2022-08-08T22:42:31.913Z,22.37
2022-08-08T22:45:00.965Z,22.35
2022-08-08T22:47:37.531Z,22.23
2022-08-08T22:50:04.842Z,22.26
2022-08-08T22:52:36.444Z,22.32
2022-08-08T22:55:04.944Z,22.42
2022-08-08T22:57:49.152Z,22.35
2022-08-08T23:00:16.540Z,22.33
2022-08-08T23:02:44.586Z,22.34
2022-08-08T23:05:17.304Z,22.39
2022-08-08T23:07:57.196Z,22.33
2022-08-08T23:10:25.479Z,22.29
2022-08-08T23:12:53.263Z,22.15
2022-08-08T23:16:41.378Z,22.10
2022-08-08T23:18:06.334Z,22.07
2022-08-08T23:20:34.046Z,22.01
2022-08-08T23:23:00.402Z,22.16
2022-08-08T23:25:26.868Z,22.06
2022-08-08T23:27:54.476Z,22.08
2022-08-08T23:30:21.068Z,22.11
2022-08-08T23:32:48.150Z,22.16
2022-08-08T23:35:17.320Z,22.20
2022-08-08T23:38:01.960Z,22.23
2022-08-08T23:40:30.278Z,22.30
2022-08-08T23:42:56.748Z,22.38
2022-08-08T23:49:00.210Z,22.40
2022-08-08T23:49:04.762Z,22.34
2022-08-08T23:50:57.181Z,22.33
2022-08-08T23:53:55.900Z,22.35
2022-08-08T23:56:12.086Z,22.40
2022-08-08T23:58:38.595Z,22.48
